• Join FlightAware (Why Join?)
  • Login
  • US Flag 
02:06AM EDT


 

Airport Tracker/Info


-or-


 

Live Flight TrackerFlight Track Log ✈ N3195K ✈ 15-Jun-2013 ✈ KBED - KIWI

Flight Track Log - Related Links

Times and Time Zones

All times are in EDT time to prevent confusion due to time zone crossing. See the N3195K flight status page for this flight to view local times or setup timezone preferences in your user account.

Time Position Orientation Groundspeed Altitude Reporting Facility
EDT Latitude Longitude Course Direction KTS MPH feet Rate Location/Type
03:30PM 42.4667 -71.3167 294° West 72 83 1,200  Level KA90
03:32PM 42.4833 -71.3667 294° West 135 155 2,700 1,200 Climbing KA90
03:33PM 42.5167 -71.3333 36° Northeast 147 169 3,900 600 Climbing KA90
03:34PM 42.5500 -71.3000 36° Northeast 175 201 4,000  Climbing KA90
03:35PM 42.6000 -71.2500 36° Northeast 196 226 4,000 120 Level KA90
03:36PM 42.6333 -71.2167 36° Northeast 196 226 4,300 480 Climbing KA90
03:37PM 42.6833 -71.1833 26° Northeast 179 206 5,000 300 Climbing KA90
03:38PM 42.7167 -71.1333 48° Northeast 195 224 5,000  Level KA90
03:39PM 42.7667 -71.0833 36° Northeast 192 221 5,000  Level KA90
03:40PM 42.8000 -71.0333 48° Northeast 190 219 5,000  Level KA90
03:41PM 42.8500 -70.9833 36° Northeast 184 212 5,100  Climbing KA90
03:42PM 42.8833 -70.9500 36° Northeast 182 209 5,000 -60 Descending KA90
03:43PM 42.9333 -70.9000 36° Northeast 181 208 5,000  Level KA90
03:44PM 42.9667 -70.8667 36° Northeast 181 208 5,000  Level KA90
03:45PM 43.0000 -70.8167 48° Northeast 177 204 5,000  Level KA90
03:46PM 43.0333 -70.7667 48° Northeast 182 209 5,000  Level KA90
03:48PM 43.1000 -70.6924 24° Northeast  Level Estimated
03:55PM 43.3472 -70.4150 50° Northeast  Level Estimated
03:56PM 43.3854 -70.3807 33° Northeast  Level FlightAware Approximate
03:57PM 43.4235 -70.3463 33° Northeast  Level FlightAware Approximate
03:58PM 43.4617 -70.3119 33° Northeast  Level FlightAware Approximate
03:59PM 43.4999 -70.2774 33° Northeast  Level FlightAware Approximate
04:00PM 43.5380 -70.2429 33° Northeast  Level FlightAware Approximate
04:01PM 43.5761 -70.2083 33° Northeast  Level FlightAware Approximate
04:02PM 43.6142 -70.1737 33° Northeast  Level FlightAware Approximate
04:03PM 43.6524 -70.1390 33° Northeast  Level FlightAware Approximate
04:04PM 43.6904 -70.1043 33° Northeast  Level FlightAware Approximate
04:05PM 43.7285 -70.0696 33° Northeast  Level FlightAware Approximate
04:06PM 43.7666 -70.0348 33° Northeast  Level FlightAware Approximate
04:07PM 43.7744 -70.0110 49° Northeast  Level FlightAware Approximate
04:08PM 43.8042 -69.9633 49° Northeast  Level FlightAware Approximate
04:09PM 43.8340 -69.9154 55° Northeast  Level FlightAware Approximate
04:10PM 43.8600 -69.8634 55° Northeast  Level FlightAware Approximate
04:11PM 43.8860 -69.8114 55° Northeast  Level FlightAware Approximate
04:12PM 43.9135 -69.7609 50° Northeast  Level FlightAware Approximate
04:13PM 43.9427 -69.7122 50° Northeast  Level FlightAware Approximate
04:14PM 43.9500 -69.7000 50° Northeast  Level FlightAware Approximate
04:15PM 43.9614 -69.7126 50° Northeast  Level Estimated
04:16PM 43.9614 -69.7126 50° Northeast  Level Estimated
04:17PM 43.9614 -69.7126 50° Northeast  Level Estimated
04:18PM 43.9614 -69.7126 50° Northeast  Level Estimated
04:19PM 43.9614 -69.7126 50° Northeast  Level Estimated
04:20PM 43.9614 -69.7126 50° Northeast  Level Estimated
04:21PM 43.9614 -69.7126 50° Northeast  Level Estimated
04:22PM 43.9614 -69.7126 50° Northeast  Level Estimated
04:23PM 43.9614 -69.7126 50° Northeast  Level Estimated
04:24PM 43.9614 -69.7126 50° Northeast  Level Estimated
04:25PM 43.9614 -69.7126 50° Northeast  Level Estimated